Time;durP1;ratioP1;P1;durP2;ratioP2;P2;SDS_P1;SDS_P2;PMS_P1;PMS_P2;Temp;Humidity;BMP_temperature;BMP_pressure;BME280_temperature;BME280_humidity;BME280_pressure;Samples;Min_cycle;Max_cycle;Signal;HPM_P1;HPM_P2
2022/04/22 00:01:26;;;;;;;28.50;22.70;;;;;;;6.06;78.51;96112.92;107652;1271;35494;-80
2022/04/22 00:03:57;;;;;;;21.60;17.30;;;;;;;6.05;78.36;96109.45;107704;1271;32241;-80
2022/04/22 00:06:29;;;;;;;19.50;15.80;;;;;;;6.04;78.51;96104.91;107704;1271;33659;-80
2022/04/22 00:09:00;;;;;;;22.30;17.10;;;;;;;6.02;78.62;96107.23;107735;1271;34391;-79
2022/04/22 00:11:30;;;;;;;18.50;14.90;;;;;;;6.02;78.56;96101.85;107645;1271;54260;-80
2022/04/22 00:14:04;;;;;;;18.10;15.20;;;;;;;6.01;78.46;96103.33;107616;1270;33735;-80
2022/04/22 00:16:35;;;;;;;19.90;15.70;;;;;;;5.98;78.47;96104.55;107697;1270;33208;-80
2022/04/22 00:19:06;;;;;;;18.60;15.10;;;;;;;5.97;78.33;96104.81;107635;1270;33333;-80
2022/04/22 00:21:37;;;;;;;17.30;14.70;;;;;;;5.94;78.51;96105.96;107746;1268;34064;-80
2022/04/22 00:24:08;;;;;;;22.20;16.80;;;;;;;5.91;78.70;96104.64;107711;1268;35354;-80
2022/04/22 00:26:39;;;;;;;16.80;14.40;;;;;;;5.90;78.61;96099.77;107711;1268;35908;-80
2022/04/22 00:29:10;;;;;;;20.40;17.10;;;;;;;5.89;78.48;96096.76;107721;1268;32427;-80
2022/04/22 00:31:42;;;;;;;24.90;20.80;;;;;;;5.89;78.46;96094.40;107695;1268;40410;-80
2022/04/22 00:34:12;;;;;;;20.60;17.40;;;;;;;5.89;78.43;96090.08;107654;1271;37880;-80
2022/04/22 00:36:43;;;;;;;27.90;21.90;;;;;;;5.85;78.36;96085.50;107703;1271;36404;-80
2022/04/22 00:39:14;;;;;;;24.10;20.30;;;;;;;5.82;78.34;96082.44;107731;1270;36757;-80
2022/04/22 00:41:43;;;;;;;;;;;;;;;5.79;78.21;96082.65;107683;1270;32534;-80
2022/04/22 00:44:14;;;;;;;22.10;17.80;;;;;;;5.74;78.24;96080.21;107728;1271;31048;-80
2022/04/22 00:46:45;;;;;;;23.70;19.00;;;;;;;5.69;78.24;96077.32;107753;1270;32223;-80
2022/04/22 00:49:16;;;;;;;25.50;21.50;;;;;;;5.67;78.31;96073.89;107692;1270;43779;-80
2022/04/22 00:51:47;;;;;;;23.90;19.80;;;;;;;5.67;78.42;96074.00;107723;1270;37009;-80
2022/04/22 00:54:17;;;;;;;21.60;17.70;;;;;;;5.66;78.13;96076.20;107695;1271;32515;-80
2022/04/22 00:56:50;;;;;;;19.60;16.20;;;;;;;5.67;78.43;96074.11;107697;1273;59102;-77
2022/04/22 00:59:21;;;;;;;22.70;17.70;;;;;;;5.64;78.22;96074.41;107645;1271;39628;-79
2022/04/22 01:01:52;;;;;;;20.20;17.40;;;;;;;5.58;78.44;96074.13;107753;1271;32717;-80
2022/04/22 01:10:00;;;;;;;19.40;17.00;;;;;;;5.28;80.05;96069.67;107691;1271;34932;-80
2022/04/22 01:12:32;;;;;;;21.70;17.30;;;;;;;5.25;80.19;96071.92;107649;1271;33373;-80
2022/04/22 01:15:04;;;;;;;25.10;19.70;;;;;;;5.27;80.30;96065.98;107796;1271;34031;-80
2022/04/22 01:17:35;;;;;;;22.70;19.50;;;;;;;5.31;80.09;96067.05;107710;1268;33903;-80
2022/04/22 01:20:07;;;;;;;22.30;19.30;;;;;;;5.37;79.95;96065.56;107760;1268;35898;-80
2022/04/22 01:22:38;;;;;;;24.00;18.40;;;;;;;5.41;79.84;96061.56;107714;1271;34075;-80
2022/04/22 01:25:10;;;;;;;22.00;17.30;;;;;;;5.37;79.98;96061.45;107687;1268;33116;-80
2022/04/22 01:27:42;;;;;;;25.10;20.80;;;;;;;5.28;80.34;96058.58;107680;1268;36249;-80
2022/04/22 01:30:13;;;;;;;27.80;21.60;;;;;;;5.20;80.71;96063.13;107719;1271;42443;-80
2022/04/22 01:32:45;;;;;;;35.70;27.90;;;;;;;5.13;81.07;96057.84;107867;1268;34923;-80
2022/04/22 01:35:15;;;;;;;38.10;31.60;;;;;;;5.16;81.36;96059.48;107825;1271;31222;-80
2022/04/22 01:37:47;;;;;;;40.10;30.70;;;;;;;5.24;81.37;96059.09;107758;1271;42681;-80
2022/04/22 01:40:18;;;;;;;38.80;33.90;;;;;;;5.33;81.44;96057.34;107682;1271;42341;-80
2022/04/22 01:42:48;;;;;;;44.70;33.60;;;;;;;5.41;81.24;96060.67;107619;1271;36820;-77
2022/04/22 01:45:19;;;;;;;43.90;33.60;;;;;;;5.44;81.06;96062.09;107669;1271;33892;-80
2022/04/22 01:47:50;;;;;;;34.00;29.50;;;;;;;5.47;81.04;96061.73;107650;1271;31688;-79
2022/04/22 01:50:21;;;;;;;27.90;23.80;;;;;;;5.48;81.11;96056.63;107575;1271;40082;-80
2022/04/22 01:52:52;;;;;;;31.20;21.00;;;;;;;5.42;81.03;96052.16;107622;1271;33227;-80
2022/04/22 01:55:23;;;;;;;22.30;18.80;;;;;;;5.38;80.72;96052.46;107643;1271;33633;-79
2022/04/22 01:57:54;;;;;;;22.70;19.80;;;;;;;5.41;80.75;96051.95;107619;1271;33915;-80
2022/04/22 02:00:25;;;;;;;26.40;20.20;;;;;;;5.44;80.75;96054.84;107647;1271;33371;-79
2022/04/22 02:02:56;;;;;;;25.10;20.50;;;;;;;5.46;80.79;96049.16;107626;1271;36585;-80
2022/04/22 02:05:27;;;;;;;24.00;20.00;;;;;;;5.49;80.52;96044.09;107624;1271;35814;-80
2022/04/22 02:07:57;;;;;;;23.70;19.60;;;;;;;5.50;80.43;96033.89;107640;1271;31910;-79
2022/04/22 02:10:27;;;;;;;;;;;;;;;5.48;80.43;96031.86;107739;1271;34245;-79
2022/04/22 02:12:58;;;;;;;19.00;14.80;;;;;;;5.47;80.51;96027.40;107729;1271;33317;-80
2022/04/22 02:15:29;;;;;;;37.60;27.50;;;;;;;5.47;80.58;96023.41;107635;1270;31548;-80
2022/04/22 02:18:00;;;;;;;36.00;29.10;;;;;;;5.48;80.57;96026.72;107661;1271;31798;-80
2022/04/22 02:20:30;;;;;;;23.80;19.00;;;;;;;5.50;80.81;96025.79;107635;1271;31532;-80
2022/04/22 02:23:01;;;;;;;21.40;15.90;;;;;;;5.51;80.79;96023.80;107656;1272;39672;-79
2022/04/22 02:25:32;;;;;;;18.20;13.70;;;;;;;5.43;80.85;96023.45;107634;1271;34902;-81
2022/04/22 02:30:51;;;;;;;20.60;15.10;;;;;;;5.24;81.73;96028.66;107579;1271;40771;-79
2022/04/22 02:33:20;;;;;;;;;;;;;;;5.23;81.94;96028.19;107664;1271;48179;-80
2022/04/22 02:35:51;;;;;;;21.10;15.50;;;;;;;5.24;82.03;96026.73;107592;1271;41119;-80
2022/04/22 02:38:21;;;;;;;18.20;15.20;;;;;;;5.26;82.06;96023.41;107613;1271;36089;-79
2022/04/22 02:46:29;;;;;;;21.60;16.90;;;;;;;5.44;81.55;96020.25;107645;1271;35602;-79
2022/04/22 02:49:01;;;;;;;22.10;17.10;;;;;;;5.47;81.39;96018.98;107671;1271;34741;-80
2022/04/22 02:51:32;;;;;;;21.10;17.00;;;;;;;5.49;81.36;96022.05;107619;1271;34240;-80
2022/04/22 02:54:02;;;;;;;19.50;16.90;;;;;;;5.48;81.31;96019.52;107641;1271;33444;-80
2022/04/22 02:56:32;;;;;;;;;;;;;;;5.45;81.10;96021.14;107678;1271;35133;-80
2022/04/22 02:59:04;;;;;;;22.20;18.40;;;;;;;5.40;81.24;96023.19;107654;1271;32948;-80
2022/04/22 03:01:36;;;;;;;21.90;17.60;;;;;;;5.36;81.48;96017.73;107693;1271;36114;-80
2022/04/22 03:04:07;;;;;;;20.50;16.40;;;;;;;5.37;81.26;96016.05;107580;1270;35268;-80
2022/04/22 03:06:38;;;;;;;20.50;16.60;;;;;;;5.33;81.42;96016.13;107648;1271;34098;-80
2022/04/22 03:09:08;;;;;;;22.00;17.70;;;;;;;5.28;81.75;96009.33;107571;1270;33349;-80
2022/04/22 03:11:39;;;;;;;23.30;18.40;;;;;;;5.25;81.65;96011.75;107606;1270;34761;-80
2022/04/22 03:14:10;;;;;;;22.50;19.10;;;;;;;5.25;81.83;96016.16;107679;1271;38231;-80
2022/04/22 03:16:42;;;;;;;21.70;18.30;;;;;;;5.26;81.88;96016.84;107698;1271;34214;-80
2022/04/22 03:19:13;;;;;;;20.20;16.90;;;;;;;5.30;81.97;96013.75;107668;1270;38725;-80
2022/04/22 03:21:44;;;;;;;19.60;16.60;;;;;;;5.30;81.96;96013.64;107776;1268;36800;-80
2022/04/22 03:24:14;;;;;;;17.80;14.30;;;;;;;5.30;81.94;96012.11;107731;1271;32179;-80
2022/04/22 03:26:45;;;;;;;17.70;14.00;;;;;;;5.34;81.95;96006.83;107690;1271;44842;-80
2022/04/22 03:29:16;;;;;;;17.20;13.30;;;;;;;5.39;81.88;96003.84;107716;1271;36200;-80
2022/04/22 03:31:47;;;;;;;17.70;13.60;;;;;;;5.44;81.76;96008.21;107752;1268;30783;-80
2022/04/22 03:34:18;;;;;;;18.70;14.80;;;;;;;5.51;81.70;96008.23;107736;1268;34187;-80
2022/04/22 03:36:49;;;;;;;19.00;15.00;;;;;;;5.55;81.56;96002.98;107629;1270;34112;-77
2022/04/22 03:39:20;;;;;;;18.30;15.70;;;;;;;5.59;81.51;96001.18;107645;1271;35170;-79
2022/04/22 03:41:51;;;;;;;25.50;21.70;;;;;;;5.64;81.37;95996.89;107649;1268;36292;-79
2022/04/22 03:44:22;;;;;;;19.70;16.50;;;;;;;5.67;81.42;95992.91;107668;1270;32292;-79
2022/04/22 03:46:52;;;;;;;19.10;15.60;;;;;;;5.65;81.14;95990.95;107710;1271;31802;-80
2022/04/22 03:49:23;;;;;;;16.50;13.90;;;;;;;5.65;80.94;95995.52;107683;1271;43364;-80
2022/04/22 03:51:54;;;;;;;17.20;14.30;;;;;;;5.64;81.05;95996.21;107663;1268;35246;-80
2022/04/22 03:54:25;;;;;;;19.60;16.00;;;;;;;5.63;81.04;95997.58;107610;1270;36672;-80
2022/04/22 03:59:47;;;;;;;14.10;10.70;;;;;;;5.58;81.26;95993.35;107731;1268;35826;-80
2022/04/22 04:02:18;;;;;;;18.70;15.40;;;;;;;5.58;81.23;95992.09;107837;1267;35207;-80
2022/04/22 04:04:50;;;;;;;19.40;15.80;;;;;;;5.59;81.28;95995.03;107707;1268;37928;-79
2022/04/22 04:07:21;;;;;;;20.50;17.30;;;;;;;5.62;81.50;95991.77;107710;1268;35542;-80
2022/04/22 04:18:17;;;;;;;19.80;17.50;;;;;;;5.61;81.18;96009.46;107809;1268;32313;-80
2022/04/22 04:23:37;;;;;;;20.80;16.80;;;;;;;5.28;81.94;96018.95;107669;1268;39537;-80
2022/04/22 04:26:08;;;;;;;23.30;18.10;;;;;;;5.22;82.42;96024.20;107564;1270;34370;-80
2022/04/22 04:28:40;;;;;;;20.50;16.90;;;;;;;5.17;82.75;96022.38;107661;1268;37308;-80
2022/04/22 04:31:12;;;;;;;18.80;16.70;;;;;;;5.15;83.17;96023.06;107650;1270;34183;-80
2022/04/22 04:33:43;;;;;;;25.40;21.70;;;;;;;5.17;83.44;96023.95;107617;1270;35342;-80
2022/04/22 04:36:15;;;;;;;29.70;22.70;;;;;;;5.25;83.22;96023.20;107668;1270;33820;-80
2022/04/22 04:38:46;;;;;;;25.70;22.50;;;;;;;5.39;83.00;96025.61;107679;1270;36450;-80
2022/04/22 04:41:17;;;;;;;29.30;23.60;;;;;;;5.49;82.76;96027.00;107655;1270;36152;-80
2022/04/22 04:43:48;;;;;;;23.80;19.20;;;;;;;5.60;82.89;96025.86;107652;1270;35366;-80
2022/04/22 04:46:19;;;;;;;22.20;17.80;;;;;;;5.73;83.06;96022.73;107682;1268;34762;-79
2022/04/22 04:48:50;;;;;;;22.40;17.60;;;;;;;5.81;83.08;96022.21;107680;1268;32097;-79
2022/04/22 04:51:20;;;;;;;23.00;19.10;;;;;;;5.87;83.56;96022.36;107626;1270;34691;-80
2022/04/22 04:53:51;;;;;;;19.50;17.10;;;;;;;5.96;83.67;96024.57;107628;1269;35731;-79
2022/04/22 04:56:22;;;;;;;20.10;16.30;;;;;;;6.03;83.55;96028.71;107607;1270;38675;-80
2022/04/22 04:58:53;;;;;;;18.20;15.90;;;;;;;6.02;83.61;96025.45;107642;1270;37227;-79
2022/04/22 05:01:23;;;;;;;21.10;18.00;;;;;;;6.08;83.47;96027.78;107662;1267;36236;-79
2022/04/22 05:03:54;;;;;;;26.00;20.50;;;;;;;6.20;83.46;96030.92;107600;1270;33941;-79
2022/04/22 05:06:25;;;;;;;25.40;20.50;;;;;;;6.27;83.41;96028.66;107629;1270;34895;-80
2022/04/22 05:08:56;;;;;;;26.90;22.00;;;;;;;6.34;83.17;96031.17;107594;1270;37310;-80
2022/04/22 05:11:27;;;;;;;28.90;23.30;;;;;;;6.33;82.69;96032.08;107724;1268;34629;-80
2022/04/22 05:13:58;;;;;;;26.10;23.30;;;;;;;6.35;82.69;96028.81;107695;1268;34961;-80
2022/04/22 05:16:29;;;;;;;27.10;23.90;;;;;;;6.45;82.53;96019.84;107667;1268;40536;-80
2022/04/22 05:19:00;;;;;;;27.00;23.10;;;;;;;6.49;82.23;96019.84;107599;1270;34562;-80
2022/04/22 05:21:31;;;;;;;27.60;23.50;;;;;;;6.52;82.15;96022.05;107561;1270;38747;-80
2022/04/22 05:24:01;;;;;;;27.90;23.00;;;;;;;6.60;81.95;96019.23;107665;1269;35224;-80
2022/04/22 05:26:32;;;;;;;26.80;21.70;;;;;;;6.71;81.98;96022.27;107588;1271;40295;-80
2022/04/22 05:29:03;;;;;;;28.00;22.80;;;;;;;6.81;81.82;96022.19;107574;1270;61026;-80
2022/04/22 05:34:23;;;;;;;32.80;25.50;;;;;;;6.92;81.37;96022.27;107573;1270;44684;-79
2022/04/22 05:36:53;;;;;;;33.20;25.70;;;;;;;6.94;81.33;96024.21;107615;1270;36911;-80
2022/04/22 05:39:24;;;;;;;30.10;26.10;;;;;;;6.97;81.18;96023.08;107627;1270;40034;-80
2022/04/22 05:41:55;;;;;;;35.50;26.90;;;;;;;7.00;80.89;96020.05;107724;1268;32006;-79
2022/04/22 05:44:26;;;;;;;31.70;25.60;;;;;;;7.02;80.55;96015.14;107644;1271;32353;-79
2022/04/22 05:46:57;;;;;;;29.40;24.00;;;;;;;7.03;80.42;96016.09;107612;1270;35449;-79
2022/04/22 05:49:28;;;;;;;32.00;25.60;;;;;;;7.11;80.62;96010.43;107667;1268;32997;-79
2022/04/22 05:51:59;;;;;;;31.00;24.70;;;;;;;7.24;80.41;96000.30;107690;1271;33238;-80
2022/04/22 05:54:30;;;;;;;31.30;25.80;;;;;;;7.46;80.32;95998.92;107691;1271;35023;-79
2022/04/22 05:57:02;;;;;;;31.10;27.00;;;;;;;7.83;80.23;95998.98;107619;1271;40129;-79
2022/04/22 05:59:34;;;;;;;28.80;25.40;;;;;;;8.22;79.60;96003.38;107652;1269;36635;-79
2022/04/22 06:02:06;;;;;;;28.80;24.10;;;;;;;8.50;77.96;95994.91;107657;1270;37475;-80
2022/04/22 06:04:37;;;;;;;27.50;23.60;;;;;;;8.91;77.43;95988.98;107661;1269;40143;-80
2022/04/22 06:07:08;;;;;;;27.30;23.70;;;;;;;9.66;77.36;95989.67;107633;1269;31729;-79
2022/04/22 06:12:28;;;;;;;;;;;;;;;10.50;72.74;95991.98;107604;1268;35643;-80
2022/04/22 06:15:02;;;;;;;29.10;25.90;;;;;;;10.37;73.00;95995.11;107725;1268;34702;-79
2022/04/22 06:17:33;;;;;;;27.90;24.90;;;;;;;10.57;73.45;95990.99;107733;1268;34502;-80
2022/04/22 06:20:05;;;;;;;25.80;23.00;;;;;;;10.94;73.18;95994.01;107695;1268;37517;-79
2022/04/22 06:22:36;;;;;;;25.70;22.80;;;;;;;11.08;71.77;95999.58;107733;1268;33875;-79
2022/04/22 06:25:10;;;;;;;25.80;23.00;;;;;;;11.04;71.15;96002.16;107680;1269;35841;-79
2022/04/22 06:27:43;;;;;;;24.20;21.60;;;;;;;10.77;70.20;96002.91;107681;1268;38255;-80
2022/04/22 06:30:17;;;;;;;25.80;23.10;;;;;;;10.42;70.17;95999.63;107714;1268;37625;-80
2022/04/22 06:32:50;;;;;;;27.20;23.50;;;;;;;10.20;70.55;95997.40;107784;1268;37149;-79
2022/04/22 06:35:22;;;;;;;27.40;24.60;;;;;;;10.05;70.48;95995.50;107565;1270;39713;-79
2022/04/22 06:37:54;;;;;;;25.60;22.90;;;;;;;9.92;70.42;95993.91;107740;1268;44242;-79
2022/04/22 06:46:16;;;;;;;27.90;22.80;;;;;;;9.93;71.19;95985.73;107711;1268;33724;-79
2022/04/22 06:48:48;;;;;;;27.50;24.30;;;;;;;10.03;71.08;95984.46;107774;1268;34305;-80
2022/04/22 06:51:22;;;;;;;27.70;23.60;;;;;;;10.02;70.50;95987.39;107787;1268;46547;-79
2022/04/22 06:53:54;;;;;;;29.10;23.90;;;;;;;9.96;70.49;95989.13;107707;1268;33743;-80
2022/04/22 06:56:27;;;;;;;26.50;23.10;;;;;;;9.96;70.51;95986.48;107688;1267;35038;-79
2022/04/22 06:58:59;;;;;;;26.10;22.40;;;;;;;10.01;70.73;95985.77;107566;1270;32945;-79
2022/04/22 07:01:31;;;;;;;24.90;22.20;;;;;;;10.08;70.77;95982.73;107516;1270;36480;-79
2022/04/22 07:04:03;;;;;;;26.40;23.50;;;;;;;10.17;70.45;95984.92;107723;1268;34458;-80
2022/04/22 07:06:34;;;;;;;26.00;22.70;;;;;;;10.18;70.27;95985.88;107711;1268;34932;-80
2022/04/22 07:09:06;;;;;;;26.70;21.70;;;;;;;10.31;70.51;95987.85;107753;1268;35765;-80
2022/04/22 07:11:38;;;;;;;25.20;21.70;;;;;;;10.47;70.26;95984.17;107731;1268;34246;-79
2022/04/22 07:14:10;;;;;;;25.30;22.40;;;;;;;10.70;69.93;95982.06;107687;1268;41987;-79
2022/04/22 07:16:45;;;;;;;24.50;21.50;;;;;;;10.82;69.00;95980.19;107768;1268;38679;-79
2022/04/22 07:19:17;;;;;;;24.60;21.50;;;;;;;10.88;69.00;95984.59;107668;1270;39014;-80
2022/04/22 07:21:49;;;;;;;24.50;21.40;;;;;;;10.94;68.94;95987.97;107657;1268;41487;-80
2022/04/22 07:24:21;;;;;;;25.10;22.30;;;;;;;10.94;68.68;95984.67;107716;1268;34441;-77
2022/04/22 07:26:55;;;;;;;24.80;22.20;;;;;;;10.93;67.84;95984.07;107649;1268;46884;-79
2022/04/22 07:29:29;;;;;;;24.60;21.40;;;;;;;10.81;67.61;95978.50;107574;1270;33485;-79
2022/04/22 07:32:01;;;;;;;24.40;21.60;;;;;;;10.81;68.20;95983.48;107624;1270;35351;-79
2022/04/22 07:34:33;;;;;;;23.20;20.80;;;;;;;10.86;68.20;95983.31;107685;1270;35608;-79
2022/04/22 07:37:09;;;;;;;25.80;23.00;;;;;;;10.74;67.16;95985.34;107671;1270;36157;-80
2022/04/22 07:39:41;;;;;;;25.40;22.40;;;;;;;10.55;67.64;95980.47;107678;1270;34353;-79
2022/04/22 07:42:17;;;;;;;24.70;22.00;;;;;;;10.62;68.19;95980.77;107535;1270;34938;-80
2022/04/22 07:47:41;;;;;;;27.50;21.60;;;;;;;10.89;67.60;95978.00;107636;1268;34971;-80
2022/04/22 07:50:15;;;;;;;24.20;21.60;;;;;;;10.92;67.37;95979.19;107687;1271;40474;-80
2022/04/22 07:52:47;;;;;;;23.30;20.20;;;;;;;11.02;67.53;95979.48;107690;1270;35871;-80
2022/04/22 07:55:18;;;;;;;23.90;21.30;;;;;;;11.15;67.31;95972.95;107808;1270;36295;-80
2022/04/22 07:57:49;;;;;;;25.40;22.70;;;;;;;11.41;67.29;95973.36;107745;1271;33405;-80
2022/04/22 08:00:22;;;;;;;25.30;22.60;;;;;;;11.55;66.09;95969.84;107635;1270;48305;-80
2022/04/22 08:02:53;;;;;;;26.10;23.40;;;;;;;11.58;66.37;95971.67;107692;1268;36921;-79
2022/04/22 08:05:24;;;;;;;27.40;23.20;;;;;;;11.70;65.83;95973.54;107722;1268;35576;-79
2022/04/22 08:07:55;;;;;;;27.30;23.90;;;;;;;11.83;65.57;95970.55;107705;1270;35004;-80
2022/04/22 08:10:26;;;;;;;26.70;22.80;;;;;;;12.00;65.66;95965.10;107554;1270;42370;-79
2022/04/22 08:12:57;;;;;;;28.70;25.00;;;;;;;12.15;65.52;95968.45;107588;1270;35547;-79
2022/04/22 08:15:30;;;;;;;25.70;23.00;;;;;;;12.32;65.59;95965.65;107675;1268;36078;-80
2022/04/22 08:18:02;;;;;;;26.60;23.90;;;;;;;12.65;65.01;95966.59;107725;1268;34759;-79
2022/04/22 08:20:35;;;;;;;25.80;23.10;;;;;;;13.14;64.42;95960.46;107732;1268;33068;-80
2022/04/22 08:23:06;;;;;;;24.70;21.70;;;;;;;13.42;63.01;95961.84;107652;1270;63724;-79
2022/04/22 08:25:37;;;;;;;24.50;21.90;;;;;;;13.38;61.69;95959.40;107683;1268;42947;-80
2022/04/22 08:28:09;;;;;;;22.00;19.70;;;;;;;13.44;61.81;95960.38;107614;1270;42099;-79
2022/04/22 08:30:39;;;;;;;23.30;20.80;;;;;;;13.47;60.18;95959.62;107666;1270;36236;-79
2022/04/22 08:33:10;;;;;;;22.30;19.90;;;;;;;13.64;60.99;95963.05;107646;1270;40282;-79
2022/04/22 08:35:41;;;;;;;21.80;19.60;;;;;;;13.93;60.93;95960.59;107603;1270;34258;-79
2022/04/22 08:38:12;;;;;;;24.00;21.50;;;;;;;14.33;61.16;95957.03;107591;1269;37020;-79
2022/04/22 08:40:44;;;;;;;23.80;21.50;;;;;;;14.78;60.56;95952.85;107657;1268;39087;-79
2022/04/22 08:43:16;;;;;;;22.80;20.30;;;;;;;15.76;60.30;95952.41;107719;1268;35103;-79
2022/04/22 08:45:47;;;;;;;23.40;21.00;;;;;;;16.57;56.26;95951.86;107711;1270;56281;-79
2022/04/22 08:51:09;;;;;;;23.80;21.30;;;;;;;16.47;56.52;95949.31;107496;1270;63104;-79
2022/04/22 08:53:41;;;;;;;22.50;20.20;;;;;;;17.19;56.48;95946.20;107586;1270;33852;-79
2022/04/22 08:56:13;;;;;;;21.90;19.70;;;;;;;17.56;54.80;95943.54;107697;1268;36684;-80
2022/04/22 08:58:45;;;;;;;22.60;20.30;;;;;;;17.47;52.05;95938.33;107623;1270;36802;-80
2022/04/22 09:01:16;;;;;;;21.70;19.40;;;;;;;17.14;52.52;95939.57;107645;1270;45837;-80
2022/04/22 09:03:48;;;;;;;20.20;18.10;;;;;;;16.96;53.59;95939.82;107746;1270;38178;-80
2022/04/22 09:06:21;;;;;;;21.20;19.00;;;;;;;17.04;54.03;95945.59;107865;1267;33442;-78
2022/04/22 09:08:53;;;;;;;20.60;18.50;;;;;;;17.31;53.50;95938.36;107775;1270;46804;-80
2022/04/22 09:11:24;;;;;;;19.90;17.90;;;;;;;17.05;53.05;95935.84;107725;1268;39171;-80
2022/04/22 09:13:55;;;;;;;19.70;17.70;;;;;;;16.68;53.78;95943.77;107620;1270;36838;-80
2022/04/22 09:16:26;;;;;;;20.20;18.10;;;;;;;16.55;54.28;95934.42;107595;1270;35206;-79
2022/04/22 09:19:01;;;;;;;19.00;17.10;;;;;;;16.64;53.93;95931.30;107656;1270;33395;-80
2022/04/22 09:21:32;;;;;;;19.90;17.80;;;;;;;16.45;54.11;95929.30;107640;1269;50569;-80
2022/04/22 09:24:13;;;;;;;20.90;18.50;;;;;;;16.41;54.49;95924.19;107695;1270;36480;-80
2022/04/22 09:26:44;;;;;;;18.60;16.70;;;;;;;16.39;54.13;95929.09;107644;1268;34653;-79
2022/04/22 09:29:15;;;;;;;19.70;17.60;;;;;;;15.94;53.18;95930.55;107698;1271;42185;-79
2022/04/22 09:31:51;;;;;;;18.30;16.40;;;;;;;15.80;53.19;95933.02;107742;1271;34481;-80
2022/04/22 09:34:39;;;;;;;18.60;16.60;;;;;;;15.47;54.55;95927.98;107649;1268;38166;-79
2022/04/22 09:43:00;;;;;;;18.90;17.10;;;;;;;14.72;55.29;95935.02;107692;1270;36158;-79
2022/04/22 09:45:41;;;;;;;21.00;16.70;;;;;;;14.53;55.72;95943.73;107679;1268;43153;-80
2022/04/22 09:48:19;;;;;;;17.40;15.60;;;;;;;14.64;56.36;95940.48;107713;1268;41329;-80
2022/04/22 09:50:53;;;;;;;17.60;15.80;;;;;;;14.69;56.51;95946.52;107595;1270;34036;-79
2022/04/22 09:53:33;;;;;;;17.40;15.50;;;;;;;14.92;57.10;95949.25;107672;1270;34435;-80
2022/04/22 09:56:10;;;;;;;18.60;16.10;;;;;;;15.01;55.92;95948.13;107600;1270;39475;-80
2022/04/22 09:58:41;;;;;;;17.70;15.00;;;;;;;14.75;55.68;95942.09;107627;1270;36752;-80
2022/04/22 10:01:12;;;;;;;16.00;14.30;;;;;;;14.31;55.76;95943.45;107621;1270;39621;-80
2022/04/22 10:03:44;;;;;;;15.90;14.00;;;;;;;14.22;57.14;95948.20;107644;1270;38734;-81
2022/04/22 10:06:15;;;;;;;15.90;14.20;;;;;;;14.33;57.31;95944.38;107716;1270;44656;-81
2022/04/22 10:08:50;;;;;;;17.70;15.10;;;;;;;14.27;57.13;95946.21;107685;1269;42167;-81
2022/04/22 10:11:21;;;;;;;15.30;13.70;;;;;;;14.13;57.26;95949.26;107588;1270;41821;-80
2022/04/22 10:13:53;;;;;;;18.00;15.40;;;;;;;14.03;57.37;95952.48;107621;1270;34040;-80
2022/04/22 10:16:24;;;;;;;20.10;15.00;;;;;;;13.89;57.56;95955.71;107615;1270;44179;-80
2022/04/22 10:18:55;;;;;;;16.40;14.40;;;;;;;13.67;57.45;95953.43;107647;1270;40337;-80
2022/04/22 10:21:27;;;;;;;16.30;14.50;;;;;;;13.32;57.68;95953.72;107527;1270;35197;-80
2022/04/22 10:23:59;;;;;;;15.40;13.70;;;;;;;13.07;58.44;95951.17;107691;1270;32603;-80
2022/04/22 10:26:30;;;;;;;17.60;13.80;;;;;;;12.90;58.86;95950.16;107794;1270;39851;-80
2022/04/22 10:29:03;;;;;;;15.40;13.30;;;;;;;12.69;58.91;95951.65;107727;1271;31352;-80
2022/04/22 10:31:34;;;;;;;15.70;13.00;;;;;;;12.42;59.33;95956.88;107626;1270;37647;-81
2022/04/22 10:34:10;;;;;;;16.50;13.20;;;;;;;12.27;59.76;95954.14;107628;1270;41180;-81
2022/04/22 10:36:43;;;;;;;15.60;11.70;;;;;;;12.16;60.14;95942.92;107659;1270;37029;-80
2022/04/22 10:39:35;;;;;;;13.70;11.80;;;;;;;12.11;60.55;95940.80;107680;1270;37835;-80
2022/04/22 10:42:16;;;;;;;14.10;12.40;;;;;;;12.05;60.73;95946.75;107752;1270;45199;-81
2022/04/22 10:47:50;;;;;;;17.30;14.70;;;;;;;11.97;61.37;95942.11;107639;1270;43895;-81
2022/04/22 10:50:32;;;;;;;19.00;17.00;;;;;;;12.00;61.89;95936.89;107712;1270;48634;-80
2022/04/22 10:53:05;;;;;;;22.80;18.90;;;;;;;11.99;62.40;95933.27;107716;1271;32030;-81
2022/04/22 10:55:37;;;;;;;23.00;19.50;;;;;;;12.01;62.85;95933.67;107644;1270;69561;-81
2022/04/22 10:58:25;;;;;;;25.00;21.20;;;;;;;12.08;63.17;95934.45;107573;1270;35661;-81
2022/04/22 11:00:58;;;;;;;25.60;22.80;;;;;;;12.15;63.37;95934.06;107674;1270;35407;-80
2022/04/22 11:03:34;;;;;;;29.70;24.30;;;;;;;12.19;63.73;95937.21;107696;1270;36567;-81
2022/04/22 11:06:13;;;;;;;31.00;27.60;;;;;;;12.13;63.79;95937.05;107631;1269;38880;-81
2022/04/22 11:08:59;;;;;;;33.00;28.90;;;;;;;11.95;64.27;95937.75;107672;1270;57852;-81
2022/04/22 11:11:41;;;;;;;31.70;28.30;;;;;;;11.84;64.80;95931.80;107690;1270;35831;-81
2022/04/22 11:14:25;;;;;;;32.90;29.10;;;;;;;11.74;65.14;95930.61;107719;1270;32724;-81
2022/04/22 11:17:17;;;;;;;31.50;28.10;;;;;;;11.71;65.46;95934.54;107031;1270;802809;-81
2022/04/22 11:20:00;;;;;;;31.90;27.90;;;;;;;11.67;65.68;95934.23;107736;1270;32237;-81
2022/04/22 11:22:58;;;;;;;32.70;28.30;;;;;;;11.65;65.71;95933.91;107711;1271;39934;-81
2022/04/22 11:25:30;;;;;;;33.40;29.80;;;;;;;11.67;66.04;95931.59;107748;1270;37728;-81
2022/04/22 11:28:04;;;;;;;33.90;30.10;;;;;;;11.73;66.32;95933.00;107612;1270;62247;-81
2022/04/22 11:30:36;;;;;;;41.70;33.30;;;;;;;11.92;66.49;95926.52;107650;1271;33344;-81
2022/04/22 11:33:17;;;;;;;40.10;33.70;;;;;;;12.08;66.24;95928.19;107694;1268;35659;-81
2022/04/22 11:35:53;;;;;;;41.90;36.10;;;;;;;12.22;66.10;95928.35;107753;1270;41706;-81
2022/04/22 11:38:25;;;;;;;42.70;37.50;;;;;;;12.34;65.96;95926.56;107674;1271;46843;-80
2022/04/22 11:40:56;;;;;;;43.70;37.90;;;;;;;12.39;65.83;95919.58;107676;1270;37970;-81
2022/04/22 11:43:30;;;;;;;43.50;38.80;;;;;;;12.48;65.60;95919.12;107645;1270;39940;-81
2022/04/22 11:46:01;;;;;;;46.60;39.70;;;;;;;12.56;65.57;95919.64;107688;1271;44601;-81
2022/04/22 11:48:32;;;;;;;48.60;41.20;;;;;;;12.51;65.17;95918.27;107632;1270;41468;-81
2022/04/22 11:51:03;;;;;;;53.70;44.40;;;;;;;12.45;65.17;95915.80;107540;1270;61762;-81
2022/04/22 11:53:34;;;;;;;52.70;46.80;;;;;;;12.52;65.35;95911.70;107717;1268;44073;-81
2022/04/22 11:56:07;;;;;;;51.50;43.10;;;;;;;12.64;65.53;95908.80;107669;1269;48593;-81
2022/04/22 11:58:38;;;;;;;50.40;44.10;;;;;;;12.77;65.24;95906.67;107706;1270;41620;-81
2022/04/22 12:06:46;;;;;;;53.20;46.10;;;;;;;12.94;64.81;95899.88;107686;1270;35878;-81
2022/04/22 12:09:18;;;;;;;50.00;43.80;;;;;;;12.95;64.89;95897.14;107712;1268;42801;-81
2022/04/22 12:11:52;;;;;;;48.80;41.30;;;;;;;12.94;64.70;95896.98;107735;1270;36365;-81
2022/04/22 12:14:28;;;;;;;46.30;39.60;;;;;;;12.92;64.20;95897.26;107723;1269;33818;-81
2022/04/22 12:17:02;;;;;;;48.60;40.30;;;;;;;12.95;64.36;95897.92;107613;1270;39012;-81
2022/04/22 12:19:33;;;;;;;47.40;37.90;;;;;;;13.02;64.43;95894.31;107569;1270;43355;-81
2022/04/22 12:22:06;;;;;;;42.20;34.50;;;;;;;13.06;64.53;95889.37;107591;1270;52790;-81
2022/04/22 12:24:37;;;;;;;41.90;34.40;;;;;;;13.09;63.88;95884.18;107575;1270;46511;-81
2022/04/22 12:30:10;;;;;;;46.30;37.90;;;;;;;12.99;64.02;95877.60;103794;1308;545480;-81
2022/04/22 12:32:53;;;;;;;49.70;38.50;;;;;;;12.94;64.26;95875.60;106816;1283;97681;-81
2022/04/22 12:35:26;;;;;;;41.90;35.60;;;;;;;12.89;64.45;95876.66;107470;1271;119871;-81
2022/04/22 12:37:58;;;;;;;42.30;35.80;;;;;;;12.78;64.47;95877.30;107556;1269;103951;-81
2022/04/22 12:40:29;;;;;;;46.50;34.80;;;;;;;12.70;64.92;95874.06;107548;1270;85524;-81